createdAt,value
2023-02-27T00:01:36.418Z,39.20
2023-02-27T00:05:25.546Z,44.30
2023-02-27T00:09:14.592Z,37.30
2023-02-27T00:12:56.957Z,40.30
2023-02-27T00:16:46.053Z,41.60
2023-02-27T00:20:35.415Z,41.20
2023-02-27T00:24:26.233Z,38.60
2023-02-27T00:28:08.285Z,43.20
2023-02-27T00:31:57.311Z,40.40
2023-02-27T00:35:46.647Z,42.60
2023-02-27T00:39:18.580Z,44.70
2023-02-27T00:43:07.807Z,43.90
2023-02-27T00:47:26.286Z,45.30
2023-02-27T00:51:15.365Z,44.10
2023-02-27T00:55:04.524Z,44.30
2023-02-27T00:58:53.581Z,47.90
2023-02-27T01:02:42.878Z,45.90
2023-02-27T01:06:32.180Z,49.60
2023-02-27T01:10:21.362Z,49.50
2023-02-27T01:14:12.579Z,49.60
2023-02-27T01:17:54.142Z,47.40
2023-02-27T01:21:43.668Z,45.70
2023-02-27T01:25:32.915Z,50.10
2023-02-27T01:29:14.355Z,50.60
2023-02-27T01:33:03.376Z,50.60
2023-02-27T01:36:53.834Z,43.80
2023-02-27T01:40:44.955Z,47.40
2023-02-27T01:44:41.689Z,48.60
2023-02-27T02:00:14.102Z,44.60
2023-02-27T02:04:12.077Z,42.70
2023-02-27T02:08:01.514Z,44.60
2023-02-27T02:11:51.497Z,43.90
2023-02-27T02:28:23.794Z,41.50
2023-02-27T02:32:30.665Z,48.00
2023-02-27T02:36:35.704Z,39.40
2023-02-27T02:44:48.578Z,39.00
2023-02-27T02:48:53.139Z,34.50
2023-02-27T02:52:44.926Z,36.60
2023-02-27T02:56:49.578Z,32.30
2023-02-27T03:08:28.438Z,22.60
2023-02-27T03:12:17.756Z,18.40
2023-02-27T03:16:07.178Z,19.20
2023-02-27T03:20:09.193Z,21.00
2023-02-27T03:31:52.155Z,17.30
2023-02-27T03:35:41.345Z,18.90
2023-02-27T03:39:52.815Z,14.90
2023-02-27T03:55:41.486Z,16.40
2023-02-27T03:59:30.494Z,14.80
2023-02-27T04:03:19.608Z,16.30
2023-02-27T04:07:07.567Z,20.20
2023-02-27T04:11:17.990Z,16.00
2023-02-27T04:23:39.608Z,18.10
2023-02-27T04:27:37.562Z,18.20
2023-02-27T04:31:30.797Z,17.70
2023-02-27T04:35:38.113Z,14.90
2023-02-27T04:39:29.538Z,14.30
2023-02-27T04:55:53.331Z,28.80
2023-02-27T04:59:47.753Z,27.30
2023-02-27T05:11:46.012Z,20.30
2023-02-27T05:15:37.926Z,21.10
2023-02-27T05:19:28.117Z,20.60
2023-02-27T05:23:21.692Z,23.80
2023-02-27T05:35:53.965Z,19.70
2023-02-27T05:39:41.522Z,20.80
2023-02-27T05:43:11.864Z,19.10
2023-02-27T05:46:35.004Z,16.70
2023-02-27T05:53:50.023Z,19.50
2023-02-27T05:57:20.227Z,15.70
2023-02-27T06:00:25.799Z,16.80
2023-02-27T06:03:36.574Z,22.60
2023-02-27T06:16:51.668Z,20.70
2023-02-27T06:19:22.273Z,31.80
2023-02-27T06:22:15.868Z,26.00
2023-02-27T06:25:39.887Z,25.90
2023-02-27T06:29:00.436Z,23.90
2023-02-27T06:32:09.229Z,21.60
2023-02-27T06:34:46.646Z,22.50
2023-02-27T06:37:22.963Z,21.30
2023-02-27T06:39:52.220Z,21.40
2023-02-27T06:43:32.286Z,23.90
2023-02-27T06:47:01.246Z,22.80
2023-02-27T06:50:16.077Z,39.40
2023-02-27T06:53:47.321Z,42.90
2023-02-27T06:57:07.665Z,55.60
2023-02-27T06:59:59.867Z,39.80
2023-02-27T07:03:01.888Z,68.70
2023-02-27T07:07:35.414Z,103.10
2023-02-27T07:10:05.598Z,84.80
2023-02-27T07:16:51.465Z,45.20
2023-02-27T07:20:05.401Z,39.20
2023-02-27T07:23:38.293Z,41.50
2023-02-27T07:27:17.338Z,48.40
2023-02-27T07:30:36.256Z,40.10
2023-02-27T07:34:01.187Z,81.20
2023-02-27T07:37:06.454Z,60.10
2023-02-27T07:40:20.495Z,52.60
2023-02-27T08:05:21.583Z,23.10
2023-02-27T08:08:31.260Z,27.60
2023-02-27T08:11:50.013Z,24.10
2023-02-27T08:15:01.555Z,25.00
2023-02-27T08:18:21.777Z,24.60
2023-02-27T08:24:35.086Z,37.50
2023-02-27T08:27:37.440Z,31.10
2023-02-27T08:31:26.634Z,39.90
2023-02-27T08:45:20.096Z,44.20
2023-02-27T08:48:28.268Z,31.40
2023-02-27T09:35:22.164Z,14.60
2023-02-27T09:39:10.470Z,13.30
2023-02-27T09:42:53.052Z,11.40
2023-02-27T09:46:32.125Z,13.70
2023-02-27T09:49:52.266Z,14.70
2023-02-27T10:45:07.081Z,28.60
2023-02-27T10:48:34.805Z,24.50
2023-02-27T10:51:38.295Z,15.90
2023-02-27T10:55:21.423Z,14.20
2023-02-27T10:59:06.993Z,14.90
2023-02-27T11:02:39.067Z,24.40
2023-02-27T11:05:37.382Z,21.10
2023-02-27T11:09:13.025Z,12.80
2023-02-27T11:26:39.804Z,16.90
2023-02-27T11:50:38.710Z,16.80
2023-02-27T11:53:42.724Z,16.90
2023-02-27T11:57:26.763Z,17.30
2023-02-27T12:01:01.806Z,18.20
2023-02-27T12:04:22.800Z,24.80
2023-02-27T12:08:05.413Z,24.20
2023-02-27T12:11:14.550Z,15.20
2023-02-27T12:14:20.017Z,19.50
2023-02-27T12:17:54.884Z,18.00
2023-02-27T12:47:04.608Z,12.70
2023-02-27T12:50:15.059Z,17.60
2023-02-27T13:13:05.685Z,11.10
2023-02-27T13:17:07.231Z,19.00
2023-02-27T13:20:51.960Z,25.80
2023-02-27T13:49:37.539Z,13.10
2023-02-27T13:52:05.044Z,14.60
2023-02-27T13:55:14.560Z,11.60
2023-02-27T13:58:42.207Z,18.40
2023-02-27T14:02:11.428Z,24.10
2023-02-27T14:05:44.535Z,18.80
2023-02-27T14:08:32.396Z,15.90
2023-02-27T14:11:41.320Z,23.10
2023-02-27T14:15:01.391Z,42.80
2023-02-27T14:17:54.671Z,35.60
2023-02-27T14:20:43.183Z,55.60
2023-02-27T14:23:27.871Z,41.50
2023-02-27T14:26:39.192Z,37.30
2023-02-27T14:29:32.888Z,34.50
2023-02-27T14:32:41.298Z,52.30
2023-02-27T14:36:03.030Z,32.90
2023-02-27T14:39:18.713Z,28.60
2023-02-27T14:42:21.906Z,37.10
2023-02-27T14:46:15.196Z,28.40
2023-02-27T14:49:25.502Z,20.40
2023-02-27T14:53:00.152Z,23.70
2023-02-27T14:55:39.763Z,32.20
2023-02-27T14:58:20.774Z,28.50
2023-02-27T15:01:36.799Z,32.90
2023-02-27T15:04:42.020Z,47.80
2023-02-27T15:07:37.287Z,37.00
2023-02-27T15:10:42.025Z,30.60
2023-02-27T15:13:43.185Z,25.90
2023-02-27T15:16:33.762Z,20.80
2023-02-27T15:19:40.079Z,24.00
2023-02-27T15:22:39.363Z,19.60
2023-02-27T15:25:45.633Z,22.60
2023-02-27T15:28:33.933Z,21.10
2023-02-27T15:31:31.653Z,23.80
2023-02-27T15:34:21.745Z,22.40
2023-02-27T15:37:28.902Z,26.50
2023-02-27T15:40:24.870Z,24.00
2023-02-27T15:43:25.419Z,30.40
2023-02-27T15:46:15.856Z,36.00
2023-02-27T15:48:57.555Z,36.80
2023-02-27T15:51:35.119Z,35.40
2023-02-27T15:55:04.949Z,35.00
2023-02-27T15:58:00.520Z,43.20
2023-02-27T16:01:07.502Z,37.90
2023-02-27T16:04:28.156Z,48.70
2023-02-27T16:08:01.068Z,38.20
2023-02-27T16:11:15.945Z,31.50
2023-02-27T16:14:12.520Z,25.10
2023-02-27T16:17:45.973Z,25.00
2023-02-27T16:21:28.413Z,16.60
2023-02-27T16:24:49.306Z,19.90
2023-02-27T16:28:21.631Z,21.80
2023-02-27T16:36:04.506Z,36.60
2023-02-27T16:39:40.665Z,25.20
2023-02-27T16:42:52.919Z,30.90
2023-02-27T16:45:49.773Z,38.60
2023-02-27T16:49:19.483Z,40.50
2023-02-27T16:52:24.948Z,71.80
2023-02-27T16:55:32.485Z,55.90
2023-02-27T16:59:34.568Z,57.90
2023-02-27T17:02:29.965Z,66.40
2023-02-27T17:05:50.328Z,52.60
2023-02-27T17:12:48.692Z,32.10
2023-02-27T17:16:02.969Z,37.40
2023-02-27T17:19:42.156Z,38.90
2023-02-27T17:23:04.580Z,54.90
2023-02-27T17:26:04.616Z,46.10
2023-02-27T17:29:16.735Z,35.00
2023-02-27T17:32:05.946Z,43.10
2023-02-27T17:35:15.850Z,30.10
2023-02-27T17:38:08.654Z,31.10
2023-02-27T17:41:04.390Z,27.30
2023-02-27T17:43:42.059Z,40.80
2023-02-27T17:47:08.439Z,33.00
2023-02-27T17:50:36.270Z,32.80
2023-02-27T17:53:47.561Z,29.20
2023-02-27T17:57:09.219Z,27.20
2023-02-27T18:00:52.605Z,27.90
2023-02-27T18:03:57.695Z,33.10
2023-02-27T18:07:38.591Z,26.50
2023-02-27T18:11:13.905Z,27.20
2023-02-27T18:14:56.361Z,23.90
2023-02-27T18:29:06.490Z,30.50
2023-02-27T18:31:58.004Z,26.50
2023-02-27T18:35:12.480Z,24.40
2023-02-27T18:38:44.504Z,28.10
2023-02-27T18:42:06.470Z,29.00
2023-02-27T18:45:07.811Z,30.00
2023-02-27T18:48:32.420Z,34.70
2023-02-27T18:51:55.230Z,33.70
2023-02-27T18:55:24.210Z,34.50
2023-02-27T18:58:06.062Z,44.50
2023-02-27T19:00:38.608Z,43.30
2023-02-27T19:03:17.394Z,39.60
2023-02-27T19:06:47.647Z,37.00
2023-02-27T19:09:31.052Z,42.20
2023-02-27T19:12:43.542Z,36.60
2023-02-27T19:15:19.578Z,41.80
2023-02-27T19:18:48.587Z,41.00
2023-02-27T19:21:37.717Z,37.70
2023-02-27T19:24:45.547Z,41.00
2023-02-27T19:27:57.100Z,45.90
2023-02-27T19:31:00.162Z,37.30
2023-02-27T19:34:17.022Z,41.90
2023-02-27T19:37:09.513Z,41.10
2023-02-27T19:39:51.942Z,29.40
2023-02-27T19:43:12.198Z,30.90
2023-02-27T19:45:49.693Z,24.10
2023-02-27T19:49:09.579Z,26.80
2023-02-27T19:52:38.471Z,26.90
2023-02-27T19:55:36.286Z,51.00
2023-02-27T19:58:30.109Z,41.10
2023-02-27T20:02:05.503Z,101.40
2023-02-27T20:05:24.699Z,68.60
2023-02-27T20:09:05.460Z,100.00
2023-02-27T20:12:52.650Z,97.40
2023-02-27T20:16:04.717Z,126.50
2023-02-27T20:18:54.741Z,104.00
2023-02-27T20:21:57.436Z,55.20
2023-02-27T20:24:59.959Z,41.40
2023-02-27T20:27:47.797Z,43.10
2023-02-27T20:30:41.811Z,28.40
2023-02-27T20:34:01.743Z,33.30
2023-02-27T20:37:31.691Z,26.40
2023-02-27T20:41:09.482Z,27.30
2023-02-27T20:43:57.339Z,33.00
2023-02-27T20:47:07.948Z,31.80
2023-02-27T20:50:13.121Z,34.60
2023-02-27T20:53:26.219Z,37.80
2023-02-27T20:56:36.040Z,50.40
2023-02-27T21:00:01.544Z,44.10
2023-02-27T21:03:02.711Z,51.10
2023-02-27T21:06:02.231Z,44.50
2023-02-27T21:09:13.480Z,62.90
2023-02-27T21:12:44.241Z,45.30
2023-02-27T21:15:36.992Z,46.30
2023-02-27T21:18:50.955Z,35.80
2023-02-27T21:21:58.105Z,35.80
2023-02-27T21:24:57.068Z,36.90
2023-02-27T21:28:26.927Z,36.60
2023-02-27T21:32:17.643Z,40.00
2023-02-27T21:35:44.543Z,37.40
2023-02-27T21:38:54.696Z,37.80
2023-02-27T21:41:34.323Z,34.60
2023-02-27T21:44:49.891Z,36.30
2023-02-27T21:47:41.976Z,41.10
2023-02-27T21:51:05.891Z,34.90
2023-02-27T21:54:14.521Z,31.70
2023-02-27T21:57:42.158Z,33.80
2023-02-27T22:03:54.485Z,31.90
2023-02-27T22:10:50.926Z,40.30
2023-02-27T22:14:29.736Z,32.70
2023-02-27T22:18:00.273Z,35.60
2023-02-27T22:24:42.144Z,34.30
2023-02-27T22:27:23.817Z,33.70
2023-02-27T22:30:41.467Z,32.00
2023-02-27T22:34:01.576Z,34.10
2023-02-27T22:37:27.155Z,34.60
2023-02-27T22:40:35.403Z,38.00
2023-02-27T22:43:22.725Z,33.30
2023-02-27T22:45:54.986Z,36.00
2023-02-27T22:49:12.965Z,32.30
2023-02-27T22:52:36.669Z,37.00
2023-02-27T22:55:22.354Z,34.90
2023-02-27T22:58:48.699Z,31.70
2023-02-27T23:02:21.934Z,33.60
2023-02-27T23:05:54.494Z,34.90
2023-02-27T23:09:22.184Z,35.40
2023-02-27T23:12:23.003Z,34.20
2023-02-27T23:15:55.220Z,32.40
2023-02-27T23:19:19.216Z,34.50
2023-02-27T23:22:36.419Z,32.90
2023-02-27T23:25:06.509Z,34.80
2023-02-27T23:28:19.837Z,38.20
2023-02-27T23:31:45.464Z,34.90
2023-02-27T23:35:24.281Z,31.10
2023-02-27T23:38:46.903Z,32.00
2023-02-27T23:42:16.631Z,35.60
2023-02-27T23:45:06.021Z,34.10
2023-02-27T23:48:40.490Z,33.00
2023-02-27T23:55:48.593Z,33.40
2023-02-27T23:59:06.559Z,33.60
